sensor_id;sensor_type;location;lat;lon;timestamp;P1;durP1;ratioP1;P2;durP2;ratioP2
82265;SDS011;71866;53.340;-6.308;2024-03-22T00:02:11;25.90;;;4.43;;
82265;SDS011;71866;53.340;-6.308;2024-03-22T00:04:37;22.80;;;4.10;;
82265;SDS011;71866;53.340;-6.308;2024-03-22T00:07:02;22.23;;;4.63;;
82265;SDS011;71866;53.340;-6.308;2024-03-22T00:09:29;23.67;;;4.40;;
82265;SDS011;71866;53.340;-6.308;2024-03-22T00:11:54;21.02;;;4.00;;
82265;SDS011;71866;53.340;-6.308;2024-03-22T00:14:20;24.27;;;4.82;;
82265;SDS011;71866;53.340;-6.308;2024-03-22T00:16:47;19.55;;;4.20;;
82265;SDS011;71866;53.340;-6.308;2024-03-22T00:19:13;27.35;;;5.00;;
82265;SDS011;71866;53.340;-6.308;2024-03-22T00:21:38;20.27;;;4.28;;
82265;SDS011;71866;53.340;-6.308;2024-03-22T00:24:04;26.90;;;4.38;;
82265;SDS011;71866;53.340;-6.308;2024-03-22T00:26:30;27.80;;;4.95;;
82265;SDS011;71866;53.340;-6.308;2024-03-22T00:28:56;28.90;;;4.90;;
82265;SDS011;71866;53.340;-6.308;2024-03-22T00:31:23;26.17;;;5.05;;
82265;SDS011;71866;53.340;-6.308;2024-03-22T00:33:48;28.13;;;5.07;;
82265;SDS011;71866;53.340;-6.308;2024-03-22T00:36:15;27.65;;;4.50;;
82265;SDS011;71866;53.340;-6.308;2024-03-22T00:38:40;24.90;;;4.17;;
82265;SDS011;71866;53.340;-6.308;2024-03-22T00:41:05;28.40;;;5.40;;
82265;SDS011;71866;53.340;-6.308;2024-03-22T00:43:33;29.02;;;5.10;;
82265;SDS011;71866;53.340;-6.308;2024-03-22T00:45:58;29.57;;;5.03;;
82265;SDS011;71866;53.340;-6.308;2024-03-22T00:48:25;29.17;;;5.30;;
82265;SDS011;71866;53.340;-6.308;2024-03-22T00:50:50;20.23;;;4.33;;
82265;SDS011;71866;53.340;-6.308;2024-03-22T00:53:17;30.63;;;4.80;;
82265;SDS011;71866;53.340;-6.308;2024-03-22T00:55:43;30.90;;;5.30;;
82265;SDS011;71866;53.340;-6.308;2024-03-22T00:58:10;26.65;;;4.55;;
82265;SDS011;71866;53.340;-6.308;2024-03-22T01:00:35;26.40;;;4.80;;
82265;SDS011;71866;53.340;-6.308;2024-03-22T01:03:01;30.13;;;5.13;;
82265;SDS011;71866;53.340;-6.308;2024-03-22T01:05:27;26.88;;;4.88;;
82265;SDS011;71866;53.340;-6.308;2024-03-22T01:07:54;27.38;;;5.10;;
82265;SDS011;71866;53.340;-6.308;2024-03-22T01:10:19;30.50;;;5.13;;
82265;SDS011;71866;53.340;-6.308;2024-03-22T01:12:45;24.35;;;4.40;;
82265;SDS011;71866;53.340;-6.308;2024-03-22T01:15:11;23.77;;;5.13;;
82265;SDS011;71866;53.340;-6.308;2024-03-22T01:17:36;27.83;;;4.83;;
82265;SDS011;71866;53.340;-6.308;2024-03-22T01:20:02;30.58;;;4.53;;
82265;SDS011;71866;53.340;-6.308;2024-03-22T01:22:28;26.67;;;5.20;;
82265;SDS011;71866;53.340;-6.308;2024-03-22T01:24:55;30.35;;;5.10;;
82265;SDS011;71866;53.340;-6.308;2024-03-22T01:27:21;28.65;;;4.75;;
82265;SDS011;71866;53.340;-6.308;2024-03-22T01:29:47;32.30;;;5.20;;
82265;SDS011;71866;53.340;-6.308;2024-03-22T01:32:13;28.83;;;5.45;;
82265;SDS011;71866;53.340;-6.308;2024-03-22T01:34:39;31.40;;;5.30;;
82265;SDS011;71866;53.340;-6.308;2024-03-22T01:37:04;32.87;;;5.63;;
82265;SDS011;71866;53.340;-6.308;2024-03-22T01:39:31;29.13;;;4.75;;
82265;SDS011;71866;53.340;-6.308;2024-03-22T01:41:56;25.43;;;4.60;;
82265;SDS011;71866;53.340;-6.308;2024-03-22T01:44:29;28.65;;;5.13;;
82265;SDS011;71866;53.340;-6.308;2024-03-22T01:46:56;29.98;;;5.90;;
82265;SDS011;71866;53.340;-6.308;2024-03-22T01:49:21;23.87;;;4.63;;
82265;SDS011;71866;53.340;-6.308;2024-03-22T01:51:48;27.85;;;4.95;;
82265;SDS011;71866;53.340;-6.308;2024-03-22T01:54:13;31.30;;;5.47;;
82265;SDS011;71866;53.340;-6.308;2024-03-22T01:56:40;31.23;;;5.17;;
82265;SDS011;71866;53.340;-6.308;2024-03-22T01:59:07;30.00;;;4.53;;
82265;SDS011;71866;53.340;-6.308;2024-03-22T02:01:32;26.90;;;4.87;;
82265;SDS011;71866;53.340;-6.308;2024-03-22T02:03:59;26.52;;;4.93;;
82265;SDS011;71866;53.340;-6.308;2024-03-22T02:06:25;27.30;;;4.70;;
82265;SDS011;71866;53.340;-6.308;2024-03-22T02:08:50;26.50;;;4.80;;
82265;SDS011;71866;53.340;-6.308;2024-03-22T02:11:17;25.63;;;4.07;;
82265;SDS011;71866;53.340;-6.308;2024-03-22T02:13:42;27.27;;;4.93;;
82265;SDS011;71866;53.340;-6.308;2024-03-22T02:16:09;28.05;;;4.63;;
82265;SDS011;71866;53.340;-6.308;2024-03-22T02:18:34;26.53;;;4.63;;
82265;SDS011;71866;53.340;-6.308;2024-03-22T02:20:59;31.03;;;5.20;;
82265;SDS011;71866;53.340;-6.308;2024-03-22T02:23:33;23.42;;;4.97;;
82265;SDS011;71866;53.340;-6.308;2024-03-22T02:25:59;26.90;;;5.00;;
82265;SDS011;71866;53.340;-6.308;2024-03-22T02:28:25;28.85;;;5.28;;
82265;SDS011;71866;53.340;-6.308;2024-03-22T02:30:51;25.70;;;4.47;;
82265;SDS011;71866;53.340;-6.308;2024-03-22T02:33:16;28.98;;;4.55;;
82265;SDS011;71866;53.340;-6.308;2024-03-22T07:17:33;8.07;;;1.40;;
82265;SDS011;71866;53.340;-6.308;2024-03-22T07:19:59;12.15;;;2.30;;
82265;SDS011;71866;53.340;-6.308;2024-03-22T07:22:24;11.30;;;1.90;;
82265;SDS011;71866;53.340;-6.308;2024-03-22T07:24:50;13.00;;;2.30;;
82265;SDS011;71866;53.340;-6.308;2024-03-22T07:27:16;8.85;;;1.98;;
82265;SDS011;71866;53.340;-6.308;2024-03-22T07:29:42;11.27;;;2.00;;
82265;SDS011;71866;53.340;-6.308;2024-03-22T07:32:07;10.10;;;1.90;;
82265;SDS011;71866;53.340;-6.308;2024-03-22T07:34:34;12.27;;;2.10;;
82265;SDS011;71866;53.340;-6.308;2024-03-22T07:36:59;14.68;;;2.50;;
82265;SDS011;71866;53.340;-6.308;2024-03-22T07:39:26;8.57;;;1.90;;
82265;SDS011;71866;53.340;-6.308;2024-03-22T07:41:52;11.98;;;2.17;;
82265;SDS011;71866;53.340;-6.308;2024-03-22T07:44:17;12.47;;;2.10;;
82265;SDS011;71866;53.340;-6.308;2024-03-22T07:46:46;12.57;;;2.00;;
82265;SDS011;71866;53.340;-6.308;2024-03-22T07:49:13;9.95;;;2.20;;
82265;SDS011;71866;53.340;-6.308;2024-03-22T07:51:39;9.20;;;1.80;;
82265;SDS011;71866;53.340;-6.308;2024-03-22T07:54:04;10.85;;;1.90;;
82265;SDS011;71866;53.340;-6.308;2024-03-22T07:56:30;15.70;;;2.47;;
82265;SDS011;71866;53.340;-6.308;2024-03-22T07:58:56;10.13;;;2.08;;
82265;SDS011;71866;53.340;-6.308;2024-03-22T08:01:22;13.37;;;2.40;;
82265;SDS011;71866;53.340;-6.308;2024-03-22T08:03:49;13.63;;;2.00;;
82265;SDS011;71866;53.340;-6.308;2024-03-22T08:06:15;12.37;;;2.17;;
82265;SDS011;71866;53.340;-6.308;2024-03-22T08:08:40;11.30;;;1.90;;
82265;SDS011;71866;53.340;-6.308;2024-03-22T08:11:06;10.07;;;2.10;;
82265;SDS011;71866;53.340;-6.308;2024-03-22T08:13:33;13.80;;;2.50;;
82265;SDS011;71866;53.340;-6.308;2024-03-22T08:15:58;12.63;;;2.00;;
82265;SDS011;71866;53.340;-6.308;2024-03-22T08:18:25;14.77;;;2.33;;
82265;SDS011;71866;53.340;-6.308;2024-03-22T08:20:50;13.47;;;2.13;;
82265;SDS011;71866;53.340;-6.308;2024-03-22T08:23:17;12.82;;;2.20;;
82265;SDS011;71866;53.340;-6.308;2024-03-22T08:25:42;11.23;;;1.93;;
82265;SDS011;71866;53.340;-6.308;2024-03-22T08:28:07;8.60;;;2.07;;
82265;SDS011;71866;53.340;-6.308;2024-03-22T08:30:36;12.57;;;2.30;;
82265;SDS011;71866;53.340;-6.308;2024-03-22T08:33:02;11.38;;;2.13;;
82265;SDS011;71866;53.340;-6.308;2024-03-22T08:35:27;13.18;;;2.60;;
82265;SDS011;71866;53.340;-6.308;2024-03-22T08:37:54;13.98;;;2.17;;
82265;SDS011;71866;53.340;-6.308;2024-03-22T08:40:19;11.60;;;1.92;;
82265;SDS011;71866;53.340;-6.308;2024-03-22T08:42:45;12.40;;;2.40;;
82265;SDS011;71866;53.340;-6.308;2024-03-22T08:45:11;11.60;;;1.90;;
82265;SDS011;71866;53.340;-6.308;2024-03-22T08:47:37;10.80;;;2.20;;
82265;SDS011;71866;53.340;-6.308;2024-03-22T08:50:06;11.98;;;2.15;;
82265;SDS011;71866;53.340;-6.308;2024-03-22T08:52:31;11.13;;;2.08;;
82265;SDS011;71866;53.340;-6.308;2024-03-22T08:54:57;10.52;;;2.17;;
82265;SDS011;71866;53.340;-6.308;2024-03-22T08:57:23;12.93;;;2.17;;
82265;SDS011;71866;53.340;-6.308;2024-03-22T08:59:49;10.67;;;2.13;;
82265;SDS011;71866;53.340;-6.308;2024-03-22T09:02:15;14.23;;;2.40;;
82265;SDS011;71866;53.340;-6.308;2024-03-22T09:04:40;11.47;;;2.30;;
82265;SDS011;71866;53.340;-6.308;2024-03-22T09:07:07;14.10;;;2.50;;
82265;SDS011;71866;53.340;-6.308;2024-03-22T09:09:32;13.60;;;2.70;;
82265;SDS011;71866;53.340;-6.308;2024-03-22T09:11:59;13.27;;;2.50;;
82265;SDS011;71866;53.340;-6.308;2024-03-22T09:14:24;11.80;;;2.03;;
82265;SDS011;71866;53.340;-6.308;2024-03-22T09:16:50;12.53;;;2.00;;
82265;SDS011;71866;53.340;-6.308;2024-03-22T09:19:16;12.07;;;2.00;;
82265;SDS011;71866;53.340;-6.308;2024-03-22T09:21:42;11.50;;;1.90;;
82265;SDS011;71866;53.340;-6.308;2024-03-22T09:24:07;9.55;;;1.92;;
82265;SDS011;71866;53.340;-6.308;2024-03-22T09:26:34;13.05;;;2.20;;
82265;SDS011;71866;53.340;-6.308;2024-03-22T09:28:59;9.52;;;1.98;;
82265;SDS011;71866;53.340;-6.308;2024-03-22T09:31:26;15.23;;;2.67;;
82265;SDS011;71866;53.340;-6.308;2024-03-22T09:33:52;11.60;;;2.17;;
82265;SDS011;71866;53.340;-6.308;2024-03-22T09:36:18;10.23;;;2.15;;
82265;SDS011;71866;53.340;-6.308;2024-03-22T09:38:44;11.73;;;2.45;;
82265;SDS011;71866;53.340;-6.308;2024-03-22T09:41:09;13.02;;;2.40;;
82265;SDS011;71866;53.340;-6.308;2024-03-22T09:43:35;13.85;;;2.47;;
82265;SDS011;71866;53.340;-6.308;2024-03-22T09:46:01;11.55;;;2.10;;
82265;SDS011;71866;53.340;-6.308;2024-03-22T09:48:27;10.63;;;1.90;;
82265;SDS011;71866;53.340;-6.308;2024-03-22T09:50:55;17.70;;;2.47;;
82265;SDS011;71866;53.340;-6.308;2024-03-22T09:53:21;13.90;;;2.20;;
82265;SDS011;71866;53.340;-6.308;2024-03-22T09:55:47;10.75;;;1.90;;
82265;SDS011;71866;53.340;-6.308;2024-03-22T09:58:13;10.90;;;2.08;;
82265;SDS011;71866;53.340;-6.308;2024-03-22T10:00:39;12.90;;;2.10;;
82265;SDS011;71866;53.340;-6.308;2024-03-22T10:03:05;13.18;;;2.35;;
82265;SDS011;71866;53.340;-6.308;2024-03-22T10:05:31;14.60;;;2.20;;
82265;SDS011;71866;53.340;-6.308;2024-03-22T10:07:57;14.48;;;2.30;;
82265;SDS011;71866;53.340;-6.308;2024-03-22T10:10:23;11.57;;;2.03;;
82265;SDS011;71866;53.340;-6.308;2024-03-22T10:12:48;11.48;;;1.98;;
82265;SDS011;71866;53.340;-6.308;2024-03-22T10:15:15;13.67;;;2.37;;
82265;SDS011;71866;53.340;-6.308;2024-03-22T10:17:40;11.37;;;2.20;;
82265;SDS011;71866;53.340;-6.308;2024-03-22T10:20:06;14.37;;;2.10;;
82265;SDS011;71866;53.340;-6.308;2024-03-22T10:22:32;12.20;;;2.17;;
82265;SDS011;71866;53.340;-6.308;2024-03-22T10:24:58;9.50;;;1.90;;
82265;SDS011;71866;53.340;-6.308;2024-03-22T10:27:24;13.07;;;2.20;;
82265;SDS011;71866;53.340;-6.308;2024-03-22T10:29:51;8.77;;;1.60;;
82265;SDS011;71866;53.340;-6.308;2024-03-22T10:32:18;10.43;;;1.80;;
82265;SDS011;71866;53.340;-6.308;2024-03-22T10:34:43;9.77;;;1.73;;
82265;SDS011;71866;53.340;-6.308;2024-03-22T10:37:09;11.13;;;2.33;;
82265;SDS011;71866;53.340;-6.308;2024-03-22T10:39:36;9.93;;;2.08;;
82265;SDS011;71866;53.340;-6.308;2024-03-22T10:42:03;11.23;;;1.85;;
82265;SDS011;71866;53.340;-6.308;2024-03-22T10:44:29;9.32;;;2.17;;
82265;SDS011;71866;53.340;-6.308;2024-03-22T10:46:55;9.23;;;1.80;;
82265;SDS011;71866;53.340;-6.308;2024-03-22T10:49:20;11.23;;;1.88;;
82265;SDS011;71866;53.340;-6.308;2024-03-22T10:51:49;10.05;;;1.80;;
82265;SDS011;71866;53.340;-6.308;2024-03-22T10:54:17;8.98;;;1.52;;
82265;SDS011;71866;53.340;-6.308;2024-03-22T10:56:44;12.25;;;1.95;;
82265;SDS011;71866;53.340;-6.308;2024-03-22T10:59:12;12.18;;;2.17;;
82265;SDS011;71866;53.340;-6.308;2024-03-22T11:01:39;9.43;;;1.92;;
82265;SDS011;71866;53.340;-6.308;2024-03-22T11:04:04;7.90;;;1.55;;
82265;SDS011;71866;53.340;-6.308;2024-03-22T11:06:31;8.20;;;1.63;;
82265;SDS011;71866;53.340;-6.308;2024-03-22T11:08:58;9.93;;;1.90;;
82265;SDS011;71866;53.340;-6.308;2024-03-22T11:11:25;8.77;;;1.63;;
82265;SDS011;71866;53.340;-6.308;2024-03-22T11:13:53;9.17;;;1.60;;
82265;SDS011;71866;53.340;-6.308;2024-03-22T11:16:19;11.32;;;2.25;;
82265;SDS011;71866;53.340;-6.308;2024-03-22T11:18:45;9.83;;;1.93;;
82265;SDS011;71866;53.340;-6.308;2024-03-22T11:21:10;8.38;;;1.48;;
82265;SDS011;71866;53.340;-6.308;2024-03-22T11:23:37;8.82;;;1.70;;
82265;SDS011;71866;53.340;-6.308;2024-03-22T11:26:03;7.83;;;1.77;;
82265;SDS011;71866;53.340;-6.308;2024-03-22T11:28:32;9.30;;;1.60;;
82265;SDS011;71866;53.340;-6.308;2024-03-22T11:30:57;9.77;;;1.52;;
82265;SDS011;71866;53.340;-6.308;2024-03-22T11:33:23;8.10;;;1.77;;
82265;SDS011;71866;53.340;-6.308;2024-03-22T11:35:49;9.25;;;1.50;;
82265;SDS011;71866;53.340;-6.308;2024-03-22T11:38:16;9.35;;;1.70;;
82265;SDS011;71866;53.340;-6.308;2024-03-22T11:40:42;6.23;;;1.53;;
82265;SDS011;71866;53.340;-6.308;2024-03-22T11:43:08;8.32;;;1.80;;
82265;SDS011;71866;53.340;-6.308;2024-03-22T11:45:34;8.10;;;1.63;;
82265;SDS011;71866;53.340;-6.308;2024-03-22T11:48:03;7.93;;;1.50;;
82265;SDS011;71866;53.340;-6.308;2024-03-22T11:50:29;7.32;;;1.50;;
82265;SDS011;71866;53.340;-6.308;2024-03-22T11:52:56;7.35;;;1.50;;
82265;SDS011;71866;53.340;-6.308;2024-03-22T11:55:21;10.27;;;1.70;;
82265;SDS011;71866;53.340;-6.308;2024-03-22T11:57:48;9.25;;;1.58;;
82265;SDS011;71866;53.340;-6.308;2024-03-22T12:00:14;10.27;;;1.85;;
82265;SDS011;71866;53.340;-6.308;2024-03-22T12:02:40;10.30;;;1.98;;
82265;SDS011;71866;53.340;-6.308;2024-03-22T12:05:06;8.05;;;1.60;;
82265;SDS011;71866;53.340;-6.308;2024-03-22T12:07:32;7.27;;;1.70;;
82265;SDS011;71866;53.340;-6.308;2024-03-22T12:09:58;9.70;;;1.70;;
82265;SDS011;71866;53.340;-6.308;2024-03-22T12:12:24;7.73;;;1.70;;
82265;SDS011;71866;53.340;-6.308;2024-03-22T12:14:49;9.52;;;1.63;;
82265;SDS011;71866;53.340;-6.308;2024-03-22T12:17:16;7.93;;;1.83;;
82265;SDS011;71866;53.340;-6.308;2024-03-22T12:19:41;8.25;;;1.70;;
82265;SDS011;71866;53.340;-6.308;2024-03-22T12:22:07;7.80;;;1.70;;
82265;SDS011;71866;53.340;-6.308;2024-03-22T12:24:33;6.97;;;1.70;;
82265;SDS011;71866;53.340;-6.308;2024-03-22T12:26:59;9.13;;;1.50;;
82265;SDS011;71866;53.340;-6.308;2024-03-22T12:29:24;8.27;;;1.20;;
82265;SDS011;71866;53.340;-6.308;2024-03-22T12:31:51;6.88;;;1.33;;
82265;SDS011;71866;53.340;-6.308;2024-03-22T12:34:16;5.03;;;1.20;;
82265;SDS011;71866;53.340;-6.308;2024-03-22T12:36:43;6.40;;;1.70;;
82265;SDS011;71866;53.340;-6.308;2024-03-22T12:39:08;6.00;;;1.30;;
82265;SDS011;71866;53.340;-6.308;2024-03-22T12:41:34;6.00;;;1.20;;
82265;SDS011;71866;53.340;-6.308;2024-03-22T12:44:01;5.82;;;1.10;;
82265;SDS011;71866;53.340;-6.308;2024-03-22T12:46:26;6.22;;;1.25;;
82265;SDS011;71866;53.340;-6.308;2024-03-22T12:48:54;7.05;;;1.50;;
82265;SDS011;71866;53.340;-6.308;2024-03-22T12:51:19;5.97;;;1.33;;
82265;SDS011;71866;53.340;-6.308;2024-03-22T12:53:45;8.23;;;1.20;;
82265;SDS011;71866;53.340;-6.308;2024-03-22T12:56:11;6.95;;;1.42;;
82265;SDS011;71866;53.340;-6.308;2024-03-22T12:58:37;9.03;;;1.43;;
82265;SDS011;71866;53.340;-6.308;2024-03-22T13:01:02;6.13;;;1.20;;
82265;SDS011;71866;53.340;-6.308;2024-03-22T13:03:29;7.03;;;1.40;;
82265;SDS011;71866;53.340;-6.308;2024-03-22T13:05:55;6.80;;;1.60;;
82265;SDS011;71866;53.340;-6.308;2024-03-22T13:08:21;4.32;;;1.00;;
82265;SDS011;71866;53.340;-6.308;2024-03-22T13:10:46;4.13;;;1.00;;
82265;SDS011;71866;53.340;-6.308;2024-03-22T13:13:12;5.27;;;1.00;;
82265;SDS011;71866;53.340;-6.308;2024-03-22T13:15:38;4.93;;;1.15;;
82265;SDS011;71866;53.340;-6.308;2024-03-22T13:18:04;6.13;;;1.20;;
82265;SDS011;71866;53.340;-6.308;2024-03-22T13:20:30;4.03;;;1.30;;
82265;SDS011;71866;53.340;-6.308;2024-03-22T13:22:56;4.37;;;1.20;;
82265;SDS011;71866;53.340;-6.308;2024-03-22T13:25:21;5.30;;;1.03;;
82265;SDS011;71866;53.340;-6.308;2024-03-22T13:27:48;6.22;;;1.10;;
82265;SDS011;71866;53.340;-6.308;2024-03-22T13:30:13;6.00;;;1.10;;
82265;SDS011;71866;53.340;-6.308;2024-03-22T13:32:40;6.33;;;1.20;;
82265;SDS011;71866;53.340;-6.308;2024-03-22T13:35:05;8.10;;;1.30;;
82265;SDS011;71866;53.340;-6.308;2024-03-22T13:37:31;4.85;;;0.90;;
82265;SDS011;71866;53.340;-6.308;2024-03-22T13:39:58;4.30;;;1.00;;
82265;SDS011;71866;53.340;-6.308;2024-03-22T13:42:24;4.72;;;0.90;;
82265;SDS011;71866;53.340;-6.308;2024-03-22T13:44:50;3.08;;;0.75;;
82265;SDS011;71866;53.340;-6.308;2024-03-22T13:47:16;4.03;;;0.90;;
82265;SDS011;71866;53.340;-6.308;2024-03-22T13:49:42;2.97;;;0.70;;
82265;SDS011;71866;53.340;-6.308;2024-03-22T13:52:08;4.13;;;0.93;;
82265;SDS011;71866;53.340;-6.308;2024-03-22T13:54:36;3.63;;;0.90;;
82265;SDS011;71866;53.340;-6.308;2024-03-22T13:57:04;3.47;;;0.80;;
82265;SDS011;71866;53.340;-6.308;2024-03-22T13:59:31;3.55;;;0.90;;
82265;SDS011;71866;53.340;-6.308;2024-03-22T14:01:59;5.37;;;1.10;;
82265;SDS011;71866;53.340;-6.308;2024-03-22T14:04:24;5.53;;;0.77;;
82265;SDS011;71866;53.340;-6.308;2024-03-22T14:06:49;3.97;;;0.90;;
82265;SDS011;71866;53.340;-6.308;2024-03-22T14:09:16;4.55;;;0.90;;
82265;SDS011;71866;53.340;-6.308;2024-03-22T14:11:41;4.47;;;0.90;;
82265;SDS011;71866;53.340;-6.308;2024-03-22T14:14:09;2.55;;;0.70;;
82265;SDS011;71866;53.340;-6.308;2024-03-22T14:16:34;5.03;;;1.10;;
82265;SDS011;71866;53.340;-6.308;2024-03-22T14:18:59;4.17;;;0.90;;
82265;SDS011;71866;53.340;-6.308;2024-03-22T14:21:26;4.25;;;0.90;;
82265;SDS011;71866;53.340;-6.308;2024-03-22T14:23:51;5.60;;;0.87;;
82265;SDS011;71866;53.340;-6.308;2024-03-22T14:26:18;2.83;;;0.80;;
82265;SDS011;71866;53.340;-6.308;2024-03-22T14:28:44;3.57;;;0.83;;
82265;SDS011;71866;53.340;-6.308;2024-03-22T14:31:10;5.87;;;0.90;;
82265;SDS011;71866;53.340;-6.308;2024-03-22T14:33:37;5.43;;;1.00;;
82265;SDS011;71866;53.340;-6.308;2024-03-22T14:36:03;3.47;;;0.73;;
82265;SDS011;71866;53.340;-6.308;2024-03-22T14:38:29;3.88;;;0.85;;
82265;SDS011;71866;53.340;-6.308;2024-03-22T14:40:55;2.90;;;0.60;;
82265;SDS011;71866;53.340;-6.308;2024-03-22T14:43:22;4.50;;;0.93;;
82265;SDS011;71866;53.340;-6.308;2024-03-22T14:45:48;4.47;;;0.80;;
82265;SDS011;71866;53.340;-6.308;2024-03-22T14:48:13;3.57;;;0.90;;
82265;SDS011;71866;53.340;-6.308;2024-03-22T14:50:40;3.92;;;0.82;;
82265;SDS011;71866;53.340;-6.308;2024-03-22T14:53:06;3.40;;;0.60;;
82265;SDS011;71866;53.340;-6.308;2024-03-22T14:55:31;2.90;;;0.53;;
82265;SDS011;71866;53.340;-6.308;2024-03-22T14:57:58;2.57;;;0.77;;
82265;SDS011;71866;53.340;-6.308;2024-03-22T15:00:23;2.47;;;0.50;;
82265;SDS011;71866;53.340;-6.308;2024-03-22T15:02:49;4.30;;;0.60;;
82265;SDS011;71866;53.340;-6.308;2024-03-22T15:05:15;3.23;;;0.60;;
82265;SDS011;71866;53.340;-6.308;2024-03-22T15:07:41;2.90;;;0.80;;
82265;SDS011;71866;53.340;-6.308;2024-03-22T15:10:08;2.95;;;0.70;;
82265;SDS011;71866;53.340;-6.308;2024-03-22T15:12:33;3.90;;;0.70;;
82265;SDS011;71866;53.340;-6.308;2024-03-22T15:15:00;3.28;;;0.70;;
82265;SDS011;71866;53.340;-6.308;2024-03-22T15:17:25;2.60;;;0.50;;
82265;SDS011;71866;53.340;-6.308;2024-03-22T15:19:51;3.70;;;0.60;;
82265;SDS011;71866;53.340;-6.308;2024-03-22T15:22:17;4.75;;;0.80;;
82265;SDS011;71866;53.340;-6.308;2024-03-22T15:24:46;3.07;;;0.90;;
82265;SDS011;71866;53.340;-6.308;2024-03-22T15:27:13;4.22;;;0.93;;
82265;SDS011;71866;53.340;-6.308;2024-03-22T15:29:38;5.70;;;1.20;;
82265;SDS011;71866;53.340;-6.308;2024-03-22T15:32:04;5.18;;;1.30;;
82265;SDS011;71866;53.340;-6.308;2024-03-22T15:34:30;3.70;;;1.00;;
82265;SDS011;71866;53.340;-6.308;2024-03-22T15:36:56;3.87;;;1.10;;
82265;SDS011;71866;53.340;-6.308;2024-03-22T15:39:22;4.47;;;1.17;;
82265;SDS011;71866;53.340;-6.308;2024-03-22T15:41:48;3.37;;;0.93;;
82265;SDS011;71866;53.340;-6.308;2024-03-22T15:44:14;4.73;;;1.40;;
82265;SDS011;71866;53.340;-6.308;2024-03-22T15:46:40;5.57;;;1.40;;
82265;SDS011;71866;53.340;-6.308;2024-03-22T15:49:05;3.87;;;1.23;;
82265;SDS011;71866;53.340;-6.308;2024-03-22T15:51:32;6.07;;;1.17;;
82265;SDS011;71866;53.340;-6.308;2024-03-22T15:53:57;3.67;;;1.03;;
82265;SDS011;71866;53.340;-6.308;2024-03-22T15:56:22;6.07;;;1.10;;
82265;SDS011;71866;53.340;-6.308;2024-03-22T15:58:49;8.35;;;1.10;;
82265;SDS011;71866;53.340;-6.308;2024-03-22T16:01:14;5.77;;;1.50;;
82265;SDS011;71866;53.340;-6.308;2024-03-22T16:03:40;7.10;;;1.27;;
82265;SDS011;71866;53.340;-6.308;2024-03-22T16:06:06;6.20;;;1.00;;
82265;SDS011;71866;53.340;-6.308;2024-03-22T16:08:32;4.83;;;1.10;;
82265;SDS011;71866;53.340;-6.308;2024-03-22T16:10:58;5.28;;;1.10;;
82265;SDS011;71866;53.340;-6.308;2024-03-22T16:13:23;5.57;;;1.10;;
82265;SDS011;71866;53.340;-6.308;2024-03-22T16:15:49;5.83;;;1.10;;
82265;SDS011;71866;53.340;-6.308;2024-03-22T16:18:15;4.53;;;1.30;;
82265;SDS011;71866;53.340;-6.308;2024-03-22T16:20:41;4.87;;;1.10;;
82265;SDS011;71866;53.340;-6.308;2024-03-22T16:23:06;6.40;;;1.40;;
82265;SDS011;71866;53.340;-6.308;2024-03-22T16:25:36;5.32;;;1.38;;
82265;SDS011;71866;53.340;-6.308;2024-03-22T16:28:01;5.75;;;1.40;;
82265;SDS011;71866;53.340;-6.308;2024-03-22T16:30:27;6.80;;;1.30;;
82265;SDS011;71866;53.340;-6.308;2024-03-22T16:32:53;4.65;;;1.02;;
82265;SDS011;71866;53.340;-6.308;2024-03-22T16:35:19;6.33;;;1.30;;
82265;SDS011;71866;53.340;-6.308;2024-03-22T16:37:45;5.00;;;1.00;;
82265;SDS011;71866;53.340;-6.308;2024-03-22T16:40:11;7.17;;;1.33;;
82265;SDS011;71866;53.340;-6.308;2024-03-22T16:42:44;5.07;;;1.10;;
82265;SDS011;71866;53.340;-6.308;2024-03-22T16:45:10;6.33;;;1.40;;
82265;SDS011;71866;53.340;-6.308;2024-03-22T16:47:36;7.00;;;1.30;;
82265;SDS011;71866;53.340;-6.308;2024-03-22T16:50:01;6.00;;;1.23;;
82265;SDS011;71866;53.340;-6.308;2024-03-22T16:52:27;6.13;;;1.30;;
82265;SDS011;71866;53.340;-6.308;2024-03-22T16:54:53;6.90;;;1.10;;
82265;SDS011;71866;53.340;-6.308;2024-03-22T16:57:19;7.07;;;1.40;;
82265;SDS011;71866;53.340;-6.308;2024-03-22T16:59:47;4.32;;;1.25;;
82265;SDS011;71866;53.340;-6.308;2024-03-22T17:02:12;7.90;;;1.45;;
82265;SDS011;71866;53.340;-6.308;2024-03-22T17:04:38;6.18;;;1.45;;
82265;SDS011;71866;53.340;-6.308;2024-03-22T17:07:04;7.80;;;1.77;;
82265;SDS011;71866;53.340;-6.308;2024-03-22T17:09:31;6.97;;;1.50;;
82265;SDS011;71866;53.340;-6.308;2024-03-22T17:11:57;8.90;;;2.10;;
82265;SDS011;71866;53.340;-6.308;2024-03-22T17:14:23;7.78;;;1.80;;
82265;SDS011;71866;53.340;-6.308;2024-03-22T17:16:48;7.95;;;1.85;;
82265;SDS011;71866;53.340;-6.308;2024-03-22T17:19:14;6.22;;;1.38;;
82265;SDS011;71866;53.340;-6.308;2024-03-22T17:21:40;5.00;;;1.10;;
82265;SDS011;71866;53.340;-6.308;2024-03-22T17:24:06;6.03;;;1.27;;
82265;SDS011;71866;53.340;-6.308;2024-03-22T17:26:32;3.42;;;1.00;;
82265;SDS011;71866;53.340;-6.308;2024-03-22T17:28:57;4.75;;;1.05;;
82265;SDS011;71866;53.340;-6.308;2024-03-22T17:31:24;5.20;;;1.17;;
82265;SDS011;71866;53.340;-6.308;2024-03-22T17:33:49;7.05;;;1.85;;
82265;SDS011;71866;53.340;-6.308;2024-03-22T17:36:16;7.85;;;1.50;;
82265;SDS011;71866;53.340;-6.308;2024-03-22T17:38:41;5.25;;;1.15;;
82265;SDS011;71866;53.340;-6.308;2024-03-22T17:41:06;6.37;;;1.87;;
82265;SDS011;71866;53.340;-6.308;2024-03-22T17:43:34;5.88;;;1.50;;
82265;SDS011;71866;53.340;-6.308;2024-03-22T17:46:00;4.80;;;1.20;;
82265;SDS011;71866;53.340;-6.308;2024-03-22T17:48:25;6.82;;;1.38;;
82265;SDS011;71866;53.340;-6.308;2024-03-22T17:50:52;6.20;;;1.10;;
82265;SDS011;71866;53.340;-6.308;2024-03-22T17:53:18;5.85;;;1.23;;
82265;SDS011;71866;53.340;-6.308;2024-03-22T17:55:45;4.70;;;0.90;;
82265;SDS011;71866;53.340;-6.308;2024-03-22T17:58:10;4.17;;;0.73;;
82265;SDS011;71866;53.340;-6.308;2024-03-22T18:00:37;5.90;;;1.15;;
82265;SDS011;71866;53.340;-6.308;2024-03-22T18:03:03;2.83;;;1.13;;
82265;SDS011;71866;53.340;-6.308;2024-03-22T18:05:28;6.45;;;1.52;;
82265;SDS011;71866;53.340;-6.308;2024-03-22T18:07:55;7.38;;;1.50;;
82265;SDS011;71866;53.340;-6.308;2024-03-22T18:10:21;5.40;;;1.70;;
82265;SDS011;71866;53.340;-6.308;2024-03-22T18:12:46;8.40;;;2.30;;
82265;SDS011;71866;53.340;-6.308;2024-03-22T18:15:13;6.17;;;1.80;;
82265;SDS011;71866;53.340;-6.308;2024-03-22T18:17:38;7.10;;;1.67;;
82265;SDS011;71866;53.340;-6.308;2024-03-22T18:20:07;8.70;;;1.90;;
82265;SDS011;71866;53.340;-6.308;2024-03-22T18:22:33;6.70;;;1.77;;
82265;SDS011;71866;53.340;-6.308;2024-03-22T18:24:59;4.70;;;1.50;;
82265;SDS011;71866;53.340;-6.308;2024-03-22T18:27:24;4.47;;;1.30;;
82265;SDS011;71866;53.340;-6.308;2024-03-22T18:29:51;5.80;;;1.47;;
82265;SDS011;71866;53.340;-6.308;2024-03-22T18:32:16;6.10;;;1.70;;
82265;SDS011;71866;53.340;-6.308;2024-03-22T18:34:43;5.27;;;1.40;;
82265;SDS011;71866;53.340;-6.308;2024-03-22T18:37:08;4.77;;;1.50;;
82265;SDS011;71866;53.340;-6.308;2024-03-22T18:39:35;4.33;;;1.43;;
82265;SDS011;71866;53.340;-6.308;2024-03-22T18:42:00;4.90;;;1.70;;
82265;SDS011;71866;53.340;-6.308;2024-03-22T18:44:27;6.55;;;2.25;;
82265;SDS011;71866;53.340;-6.308;2024-03-22T18:46:52;6.43;;;2.03;;
82265;SDS011;71866;53.340;-6.308;2024-03-22T18:49:17;7.70;;;2.17;;
82265;SDS011;71866;53.340;-6.308;2024-03-22T18:51:44;7.10;;;1.77;;
82265;SDS011;71866;53.340;-6.308;2024-03-22T18:54:09;6.97;;;1.80;;
82265;SDS011;71866;53.340;-6.308;2024-03-22T18:56:35;6.20;;;2.10;;
82265;SDS011;71866;53.340;-6.308;2024-03-22T18:59:01;8.60;;;2.40;;
82265;SDS011;71866;53.340;-6.308;2024-03-22T19:01:28;5.23;;;1.97;;
82265;SDS011;71866;53.340;-6.308;2024-03-22T19:03:54;7.50;;;2.10;;